createdAt,value
2023-03-22T00:02:12.950Z,74.03
2023-03-22T00:06:13.020Z,75.90
2023-03-22T00:10:13.067Z,75.67
2023-03-22T00:14:13.179Z,77.71
2023-03-22T00:18:13.276Z,76.93
2023-03-22T00:22:13.434Z,80.20
2023-03-22T00:26:13.546Z,83.56
2023-03-22T00:30:13.709Z,79.70
2023-03-22T00:34:13.836Z,83.41
2023-03-22T00:38:13.918Z,84.41
2023-03-22T00:42:14.072Z,81.03
2023-03-22T00:46:14.376Z,82.76
2023-03-22T00:50:14.253Z,86.08
2023-03-22T00:54:14.463Z,85.72
2023-03-22T00:58:14.532Z,85.18
2023-03-22T01:02:14.646Z,85.88
2023-03-22T01:06:14.746Z,86.52
2023-03-22T01:10:14.896Z,86.04
2023-03-22T01:14:15.031Z,88.28
2023-03-22T01:18:15.118Z,89.52
2023-03-22T01:22:15.219Z,87.45
2023-03-22T01:26:15.304Z,90.40
2023-03-22T01:30:15.444Z,90.51
2023-03-22T01:34:15.645Z,91.32
2023-03-22T01:38:15.696Z,89.56
2023-03-22T01:42:15.805Z,91.21
2023-03-22T01:46:15.968Z,94.76
2023-03-22T01:50:15.961Z,90.36
2023-03-22T01:54:16.127Z,89.01
2023-03-22T01:58:16.252Z,94.11
2023-03-22T02:02:16.399Z,92.78
2023-03-22T02:06:16.510Z,94.52
2023-03-22T02:10:16.709Z,97.81
2023-03-22T02:14:16.847Z,93.26
2023-03-22T02:18:16.886Z,95.27
2023-03-22T02:22:17.084Z,92.85
2023-03-22T02:26:17.165Z,96.30
2023-03-22T02:30:17.259Z,96.69
2023-03-22T02:34:17.364Z,93.75
2023-03-22T02:38:17.495Z,97.78
2023-03-22T02:42:17.671Z,95.83
2023-03-22T02:46:17.721Z,97.17
2023-03-22T02:50:17.888Z,95.29
2023-03-22T02:54:17.961Z,98.74
2023-03-22T02:58:18.040Z,94.48
2023-03-22T03:02:18.159Z,97.28
2023-03-22T03:06:18.321Z,98.03
2023-03-22T03:10:18.465Z,101.06
2023-03-22T03:14:18.580Z,98.39
2023-03-22T03:18:18.638Z,98.59
2023-03-22T03:22:18.784Z,97.93
2023-03-22T03:26:18.914Z,99.84
2023-03-22T03:30:19.021Z,102.23
2023-03-22T03:34:19.217Z,99.02
2023-03-22T03:38:19.290Z,101.03
2023-03-22T03:42:19.362Z,97.84
2023-03-22T03:46:19.470Z,98.20
2023-03-22T03:50:19.623Z,101.74
2023-03-22T03:54:19.726Z,100.37
2023-03-22T03:58:19.810Z,102.97
2023-03-22T04:02:19.941Z,102.11
2023-03-22T04:06:20.070Z,101.69
2023-03-22T04:10:20.183Z,102.80
2023-03-22T04:14:20.305Z,102.81
2023-03-22T04:18:20.461Z,100.67
2023-03-22T04:22:20.537Z,100.15
2023-03-22T04:26:20.668Z,99.12
2023-03-22T04:30:20.776Z,105.06
2023-03-22T04:34:20.893Z,104.29
2023-03-22T04:38:21.080Z,98.32
2023-03-22T04:42:21.135Z,102.78
2023-03-22T04:46:21.382Z,103.70
2023-03-22T04:50:21.336Z,102.72
2023-03-22T04:54:21.868Z,100.03
2023-03-22T04:58:21.586Z,96.89
2023-03-22T05:02:21.735Z,104.31
2023-03-22T05:06:21.793Z,104.14
2023-03-22T05:10:21.875Z,90.25
2023-03-22T05:14:22.013Z,77.45
2023-03-22T05:18:22.034Z,72.98
2023-03-22T05:22:22.171Z,67.65
2023-03-22T05:26:22.248Z,60.76
2023-03-22T05:30:22.378Z,54.87
2023-03-22T05:34:22.504Z,48.42
2023-03-22T05:38:22.572Z,45.22
2023-03-22T05:42:22.631Z,49.16
2023-03-22T05:46:22.825Z,51.00
2023-03-22T05:50:22.864Z,53.21
2023-03-22T05:54:23.355Z,55.54
2023-03-22T05:58:23.086Z,49.15
2023-03-22T06:02:23.155Z,46.68
2023-03-22T06:06:23.354Z,43.35
2023-03-22T06:10:23.417Z,40.44
2023-03-22T06:14:23.613Z,38.83
2023-03-22T06:18:23.769Z,36.68
2023-03-22T06:22:23.770Z,54.77
2023-03-22T06:26:23.844Z,98.62
2023-03-22T06:30:23.968Z,63.99
2023-03-22T06:34:24.080Z,49.89
2023-03-22T06:38:24.314Z,43.38
2023-03-22T06:42:24.374Z,41.65
2023-03-22T06:46:24.409Z,45.45
2023-03-22T06:50:25.425Z,41.08
2023-03-22T06:54:24.898Z,39.71
2023-03-22T06:58:26.360Z,33.84
2023-03-22T07:02:24.974Z,43.20
2023-03-22T07:06:24.815Z,42.91
2023-03-22T07:10:24.905Z,44.82
2023-03-22T07:14:25.078Z,29.58
2023-03-22T07:18:25.127Z,29.85
2023-03-22T07:22:25.303Z,27.88
2023-03-22T07:26:25.467Z,31.64
2023-03-22T07:30:25.494Z,31.68
2023-03-22T07:34:25.656Z,28.23
2023-03-22T07:38:25.733Z,28.84
2023-03-22T07:42:25.875Z,32.60
2023-03-22T07:46:26.433Z,25.83
2023-03-22T07:50:26.135Z,25.00
2023-03-22T07:54:33.794Z,31.45
2023-03-22T07:58:27.214Z,30.59
2023-03-22T08:02:26.262Z,25.00
2023-03-22T08:06:26.271Z,40.24
2023-03-22T08:10:26.500Z,41.65
2023-03-22T08:14:36.035Z,40.01
2023-03-22T08:18:27.614Z,41.87
2023-03-22T08:22:28.450Z,41.55
2023-03-22T08:26:26.525Z,24.99
2023-03-22T08:30:26.783Z,25.00
2023-03-22T08:34:26.901Z,25.59
2023-03-22T08:38:27.075Z,50.50
2023-03-22T08:42:27.241Z,77.53
2023-03-22T08:46:27.401Z,84.86
2023-03-22T08:50:27.450Z,89.18
2023-03-22T08:54:27.893Z,96.31
2023-03-22T08:58:27.649Z,96.69
2023-03-22T09:02:27.847Z,102.47
2023-03-22T09:06:27.924Z,96.08
2023-03-22T09:10:28.063Z,103.50
2023-03-22T09:14:28.194Z,100.98
2023-03-22T09:18:28.322Z,92.97
2023-03-22T09:22:28.418Z,89.17
2023-03-22T09:26:28.962Z,86.05
2023-03-22T09:30:28.661Z,94.99
2023-03-22T09:34:28.791Z,93.95
2023-03-22T09:38:28.977Z,93.75
2023-03-22T09:42:28.988Z,92.92
2023-03-22T09:46:29.276Z,94.70
2023-03-22T09:50:29.402Z,98.15
2023-03-22T09:54:29.280Z,96.76
2023-03-22T09:58:29.399Z,104.45
2023-03-22T10:02:29.485Z,96.49
2023-03-22T10:06:29.641Z,101.24
2023-03-22T10:10:29.540Z,91.59
2023-03-22T10:14:29.569Z,91.72
2023-03-22T10:18:29.638Z,79.58
2023-03-22T10:22:29.662Z,68.89
2023-03-22T10:26:29.706Z,74.30
2023-03-22T10:30:29.737Z,81.15
2023-03-22T10:34:29.813Z,78.54
2023-03-22T10:38:29.947Z,69.52
2023-03-22T10:42:29.979Z,78.44
2023-03-22T10:46:30.114Z,70.88
2023-03-22T10:50:30.167Z,73.44
2023-03-22T10:54:30.499Z,62.82
2023-03-22T10:58:30.403Z,44.14
2023-03-22T11:02:30.606Z,25.70
2023-03-22T11:06:30.665Z,42.82
2023-03-22T11:10:31.565Z,100.68
2023-03-22T11:14:30.712Z,157.61
2023-03-22T11:18:31.060Z,130.76
2023-03-22T11:22:31.080Z,25.01
2023-03-22T11:26:31.092Z,71.70
2023-03-22T11:30:31.059Z,178.96
2023-03-22T11:34:31.642Z,201.47
2023-03-22T11:38:31.109Z,195.88
2023-03-22T11:42:31.170Z,193.52
2023-03-22T11:46:31.217Z,209.39
2023-03-22T11:50:31.371Z,213.71
2023-03-22T11:54:31.506Z,220.70
2023-03-22T11:58:31.665Z,224.74
2023-03-22T12:02:31.996Z,214.31
2023-03-22T12:06:32.032Z,217.52
2023-03-22T12:10:32.126Z,229.72
2023-03-22T12:14:32.412Z,188.05
2023-03-22T12:18:32.512Z,229.64
2023-03-22T12:22:32.618Z,243.56
2023-03-22T12:26:32.773Z,248.55
2023-03-22T12:30:32.955Z,239.82
2023-03-22T12:34:33.076Z,243.80
2023-03-22T12:38:33.281Z,237.10
2023-03-22T12:42:34.947Z,242.73
2023-03-22T12:46:33.401Z,231.55
2023-03-22T12:50:33.350Z,250.00
2023-03-22T12:54:33.281Z,247.79
2023-03-22T12:58:33.281Z,250.01
2023-03-22T13:02:33.375Z,221.62
2023-03-22T13:06:33.259Z,221.59
2023-03-22T13:10:33.247Z,251.21
2023-03-22T13:14:33.385Z,237.15
2023-03-22T13:18:33.760Z,236.46
2023-03-22T13:22:33.736Z,235.91
2023-03-22T13:26:33.901Z,227.64
2023-03-22T13:30:34.031Z,209.29
2023-03-22T13:34:34.172Z,224.61
2023-03-22T13:38:34.332Z,205.27
2023-03-22T13:42:34.544Z,180.06
2023-03-22T13:46:34.709Z,167.61
2023-03-22T13:50:34.785Z,169.70
2023-03-22T13:54:34.931Z,170.04
2023-03-22T13:58:34.991Z,174.51
2023-03-22T14:02:37.411Z,179.00
2023-03-22T14:06:35.552Z,178.12
2023-03-22T14:10:35.495Z,183.19
2023-03-22T14:14:35.618Z,185.27
2023-03-22T14:18:35.681Z,191.93
2023-03-22T14:47:36.356Z,25.00
2023-03-22T14:51:36.073Z,25.18
2023-03-22T14:55:36.056Z,38.31
2023-03-22T14:59:35.983Z,37.90
2023-03-22T15:03:37.255Z,31.99
2023-03-22T15:07:35.922Z,47.48
2023-03-22T15:11:35.891Z,63.13
2023-03-22T15:15:35.870Z,57.75
2023-03-22T15:19:35.851Z,59.93
2023-03-22T15:23:35.836Z,56.09
2023-03-22T15:27:35.749Z,49.73
2023-03-22T15:31:35.706Z,36.53
2023-03-22T15:35:36.424Z,35.81
2023-03-22T15:39:35.736Z,27.21
2023-03-22T15:43:35.856Z,28.95
2023-03-22T15:47:36.397Z,31.44
2023-03-22T15:51:36.425Z,37.31
2023-03-22T15:55:36.148Z,46.41
2023-03-22T15:59:36.273Z,37.43
2023-03-22T16:03:36.361Z,31.90
2023-03-22T16:07:36.488Z,34.02
2023-03-22T16:11:36.506Z,35.69
2023-03-22T16:15:36.637Z,31.06
2023-03-22T16:19:36.715Z,32.05
2023-03-22T16:23:36.796Z,51.60
2023-03-22T16:27:37.060Z,44.39
2023-03-22T16:31:38.993Z,26.86
2023-03-22T16:35:39.192Z,9.89
2023-03-22T16:39:37.031Z,25.00
2023-03-22T16:43:37.415Z,33.53
2023-03-22T16:47:37.062Z,46.77
2023-03-22T16:51:37.146Z,48.46
2023-03-22T16:55:37.238Z,73.13
2023-03-22T16:59:37.214Z,92.36
2023-03-22T17:03:37.305Z,103.88
2023-03-22T17:07:37.426Z,110.44
2023-03-22T17:11:37.494Z,114.79
2023-03-22T17:15:37.731Z,120.01
2023-03-22T17:19:37.764Z,121.53
2023-03-22T17:23:37.892Z,120.14
2023-03-22T17:27:38.420Z,123.05
2023-03-22T17:31:38.332Z,150.84
2023-03-22T17:35:38.223Z,117.80
2023-03-22T17:43:39.356Z,118.82
2023-03-22T17:47:41.916Z,119.70
2023-03-22T17:51:39.283Z,119.11
2023-03-22T17:56:08.627Z,112.45
2023-03-22T17:59:39.258Z,116.60
2023-03-22T18:03:38.169Z,118.56
2023-03-22T18:07:38.935Z,123.38
2023-03-22T18:11:38.117Z,118.42
2023-03-22T18:15:38.204Z,118.38
2023-03-22T18:19:38.277Z,125.85
2023-03-22T18:23:38.405Z,129.08
2023-03-22T18:27:47.397Z,127.37
2023-03-22T18:31:39.478Z,130.14
2023-03-22T18:35:38.429Z,125.95
2023-03-22T18:40:20.050Z,120.62
2023-03-22T18:43:39.365Z,124.06
2023-03-22T18:47:38.299Z,114.97
2023-03-22T18:55:42.604Z,143.12
2023-03-22T18:59:38.419Z,191.08
2023-03-22T19:03:38.545Z,257.01
2023-03-22T19:07:55.132Z,234.97
2023-03-22T19:11:39.625Z,209.83
2023-03-22T19:15:44.377Z,191.37
2023-03-22T19:19:39.570Z,188.77
2023-03-22T19:23:38.515Z,188.34
2023-03-22T19:27:38.581Z,178.49
2023-03-22T19:31:38.613Z,168.33
2023-03-22T19:35:38.849Z,166.43
2023-03-22T19:39:38.921Z,149.53
2023-03-22T19:43:39.076Z,142.56
2023-03-22T19:51:39.150Z,136.20
2023-03-22T19:55:39.228Z,130.96
2023-03-22T19:59:39.133Z,134.80
2023-03-22T20:03:39.052Z,141.19
2023-03-22T20:07:39.013Z,143.56
2023-03-22T20:11:43.630Z,145.83
2023-03-22T20:15:39.836Z,142.69
2023-03-22T20:19:38.944Z,140.09
2023-03-22T20:23:38.864Z,136.10
2023-03-22T20:27:38.824Z,123.34
2023-03-22T20:31:39.002Z,123.00
2023-03-22T20:35:39.315Z,123.49
2023-03-22T20:39:39.471Z,124.49
2023-03-22T20:43:39.518Z,126.95
2023-03-22T20:47:39.689Z,128.95
2023-03-22T20:51:39.819Z,127.76
2023-03-22T20:55:40.148Z,128.58
2023-03-22T20:59:40.143Z,130.90
2023-03-22T21:03:40.277Z,129.85
2023-03-22T21:07:40.496Z,129.43
2023-03-22T21:11:40.718Z,132.03
2023-03-22T21:15:41.077Z,130.84
2023-03-22T21:19:41.050Z,130.87
2023-03-22T21:23:41.221Z,129.97
2023-03-22T21:27:41.379Z,132.49
2023-03-22T21:31:41.543Z,131.50
2023-03-22T21:35:41.875Z,130.22
2023-03-22T21:39:41.878Z,129.54
2023-03-22T21:43:41.998Z,131.15
2023-03-22T21:47:42.132Z,129.94
2023-03-22T21:51:42.355Z,131.24
2023-03-22T21:55:43.726Z,130.30
2023-03-22T21:59:42.616Z,129.08
2023-03-22T22:03:42.809Z,127.20
2023-03-22T22:07:42.939Z,127.53
2023-03-22T22:11:43.080Z,130.20
2023-03-22T22:15:43.298Z,129.95
2023-03-22T22:19:43.336Z,128.52
2023-03-22T22:23:43.485Z,126.29
2023-03-22T22:27:43.622Z,124.79
2023-03-22T22:31:43.698Z,127.08
2023-03-22T22:35:44.085Z,127.29
2023-03-22T22:39:43.902Z,126.18
2023-03-22T22:43:44.064Z,124.42
2023-03-22T22:47:44.068Z,126.41
2023-03-22T22:51:44.176Z,127.83
2023-03-22T22:55:44.233Z,126.49
2023-03-22T22:59:44.378Z,127.44
2023-03-22T23:03:44.561Z,125.23
2023-03-22T23:07:44.605Z,124.52
2023-03-22T23:11:44.682Z,123.42
2023-03-22T23:15:44.815Z,125.13
2023-03-22T23:19:44.888Z,127.83
2023-03-22T23:23:44.953Z,124.38
2023-03-22T23:27:45.892Z,125.29
2023-03-22T23:31:44.886Z,124.33
2023-03-22T23:35:44.878Z,122.31
2023-03-22T23:39:44.771Z,124.70
2023-03-22T23:43:44.854Z,123.87
2023-03-22T23:47:44.889Z,123.99
2023-03-22T23:51:45.013Z,122.34
2023-03-22T23:55:45.078Z,120.17
2023-03-22T23:59:45.183Z,124.63
